sensor_id;sensor_type;location;lat;lon;timestamp;P1;durP1;ratioP1;P2;durP2;ratioP2
20478;SDS011;10398;52.490;13.434;2023-02-15T00:01:55;39.00;;;13.70;;
20478;SDS011;10398;52.490;13.434;2023-02-15T00:04:27;35.67;;;12.77;;
20478;SDS011;10398;52.490;13.434;2023-02-15T00:07:11;45.97;;;15.10;;
20478;SDS011;10398;52.490;13.434;2023-02-15T00:09:40;35.70;;;12.80;;
20478;SDS011;10398;52.490;13.434;2023-02-15T00:12:06;27.77;;;11.50;;
20478;SDS011;10398;52.490;13.434;2023-02-15T00:14:31;25.77;;;10.97;;
20478;SDS011;10398;52.490;13.434;2023-02-15T00:16:57;29.00;;;11.07;;
20478;SDS011;10398;52.490;13.434;2023-02-15T00:19:25;34.07;;;12.57;;
20478;SDS011;10398;52.490;13.434;2023-02-15T00:21:51;29.03;;;11.50;;
20478;SDS011;10398;52.490;13.434;2023-02-15T00:24:17;27.40;;;11.50;;
20478;SDS011;10398;52.490;13.434;2023-02-15T00:26:44;28.30;;;11.60;;
20478;SDS011;10398;52.490;13.434;2023-02-15T00:29:11;25.90;;;11.63;;
20478;SDS011;10398;52.490;13.434;2023-02-15T00:31:38;25.63;;;10.67;;
20478;SDS011;10398;52.490;13.434;2023-02-15T00:34:05;26.77;;;10.80;;
20478;SDS011;10398;52.490;13.434;2023-02-15T00:36:31;30.27;;;12.03;;
20478;SDS011;10398;52.490;13.434;2023-02-15T00:38:57;31.10;;;11.47;;
20478;SDS011;10398;52.490;13.434;2023-02-15T00:41:23;28.17;;;11.77;;
20478;SDS011;10398;52.490;13.434;2023-02-15T00:43:48;32.10;;;11.67;;
20478;SDS011;10398;52.490;13.434;2023-02-15T00:46:14;30.80;;;12.10;;
20478;SDS011;10398;52.490;13.434;2023-02-15T00:48:39;31.73;;;11.07;;
20478;SDS011;10398;52.490;13.434;2023-02-15T00:51:05;30.90;;;11.10;;
20478;SDS011;10398;52.490;13.434;2023-02-15T00:53:31;27.77;;;11.17;;
20478;SDS011;10398;52.490;13.434;2023-02-15T00:55:57;34.30;;;11.50;;
20478;SDS011;10398;52.490;13.434;2023-02-15T00:58:23;30.70;;;12.07;;
20478;SDS011;10398;52.490;13.434;2023-02-15T01:00:49;29.20;;;11.20;;
20478;SDS011;10398;52.490;13.434;2023-02-15T01:03:16;30.80;;;11.83;;
20478;SDS011;10398;52.490;13.434;2023-02-15T01:05:42;31.70;;;11.97;;
20478;SDS011;10398;52.490;13.434;2023-02-15T01:08:08;27.17;;;10.77;;
20478;SDS011;10398;52.490;13.434;2023-02-15T01:10:37;33.30;;;11.27;;
20478;SDS011;10398;52.490;13.434;2023-02-15T01:13:02;28.57;;;11.57;;
20478;SDS011;10398;52.490;13.434;2023-02-15T01:15:29;30.00;;;11.10;;
20478;SDS011;10398;52.490;13.434;2023-02-15T01:17:55;29.07;;;11.87;;
20478;SDS011;10398;52.490;13.434;2023-02-15T01:20:22;31.10;;;11.17;;
20478;SDS011;10398;52.490;13.434;2023-02-15T01:22:50;31.47;;;11.17;;
20478;SDS011;10398;52.490;13.434;2023-02-15T01:25:16;30.57;;;12.50;;
20478;SDS011;10398;52.490;13.434;2023-02-15T01:27:43;28.63;;;11.07;;
20478;SDS011;10398;52.490;13.434;2023-02-15T01:30:09;32.47;;;12.23;;
20478;SDS011;10398;52.490;13.434;2023-02-15T01:32:35;31.90;;;12.10;;
20478;SDS011;10398;52.490;13.434;2023-02-15T01:35:01;25.80;;;10.70;;
20478;SDS011;10398;52.490;13.434;2023-02-15T01:37:29;31.97;;;11.33;;
20478;SDS011;10398;52.490;13.434;2023-02-15T01:39:56;24.97;;;11.10;;
20478;SDS011;10398;52.490;13.434;2023-02-15T01:42:22;32.40;;;11.53;;
20478;SDS011;10398;52.490;13.434;2023-02-15T01:50:16;26.20;;;11.27;;
20478;SDS011;10398;52.490;13.434;2023-02-15T01:52:46;29.60;;;11.13;;
20478;SDS011;10398;52.490;13.434;2023-02-15T01:55:20;29.47;;;10.70;;
20478;SDS011;10398;52.490;13.434;2023-02-15T01:57:48;30.13;;;11.37;;
20478;SDS011;10398;52.490;13.434;2023-02-15T02:00:16;32.67;;;12.00;;
20478;SDS011;10398;52.490;13.434;2023-02-15T02:02:43;29.40;;;11.53;;
20478;SDS011;10398;52.490;13.434;2023-02-15T02:05:13;29.83;;;11.67;;
20478;SDS011;10398;52.490;13.434;2023-02-15T02:07:39;35.47;;;11.63;;
20478;SDS011;10398;52.490;13.434;2023-02-15T02:10:09;28.47;;;11.40;;
20478;SDS011;10398;52.490;13.434;2023-02-15T02:12:37;29.47;;;11.60;;
20478;SDS011;10398;52.490;13.434;2023-02-15T02:15:05;39.87;;;12.27;;
20478;SDS011;10398;52.490;13.434;2023-02-15T02:31:31;29.80;;;12.70;;
20478;SDS011;10398;52.490;13.434;2023-02-15T02:34:44;42.63;;;14.87;;
20478;SDS011;10398;52.490;13.434;2023-02-15T02:43:09;36.60;;;13.73;;
20478;SDS011;10398;52.490;13.434;2023-02-15T02:45:45;33.83;;;12.03;;
20478;SDS011;10398;52.490;13.434;2023-02-15T02:48:24;41.60;;;13.40;;
20478;SDS011;10398;52.490;13.434;2023-02-15T02:50:52;40.83;;;12.83;;
20478;SDS011;10398;52.490;13.434;2023-02-15T02:53:18;41.17;;;13.90;;
20478;SDS011;10398;52.490;13.434;2023-02-15T02:55:49;38.40;;;13.63;;
20478;SDS011;10398;52.490;13.434;2023-02-15T02:58:45;44.07;;;13.23;;
20478;SDS011;10398;52.490;13.434;2023-02-15T03:01:29;46.80;;;13.53;;
20478;SDS011;10398;52.490;13.434;2023-02-15T03:04:06;43.70;;;14.10;;
20478;SDS011;10398;52.490;13.434;2023-02-15T03:06:41;42.77;;;14.20;;
20478;SDS011;10398;52.490;13.434;2023-02-15T03:09:37;42.40;;;13.83;;
20478;SDS011;10398;52.490;13.434;2023-02-15T03:12:11;44.43;;;13.97;;
20478;SDS011;10398;52.490;13.434;2023-02-15T03:14:40;39.50;;;13.97;;
20478;SDS011;10398;52.490;13.434;2023-02-15T03:17:08;44.10;;;13.77;;
20478;SDS011;10398;52.490;13.434;2023-02-15T03:19:37;44.87;;;14.50;;
20478;SDS011;10398;52.490;13.434;2023-02-15T03:22:47;43.63;;;14.37;;
20478;SDS011;10398;52.490;13.434;2023-02-15T03:24:57;44.03;;;14.67;;
20478;SDS011;10398;52.490;13.434;2023-02-15T03:27:37;36.33;;;13.17;;
20478;SDS011;10398;52.490;13.434;2023-02-15T03:30:12;40.33;;;13.80;;
20478;SDS011;10398;52.490;13.434;2023-02-15T03:32:41;43.57;;;15.00;;
20478;SDS011;10398;52.490;13.434;2023-02-15T03:35:09;37.17;;;13.90;;
20478;SDS011;10398;52.490;13.434;2023-02-15T03:37:43;48.17;;;13.97;;
20478;SDS011;10398;52.490;13.434;2023-02-15T03:40:18;47.00;;;14.23;;
20478;SDS011;10398;52.490;13.434;2023-02-15T03:43:16;45.43;;;14.77;;
20478;SDS011;10398;52.490;13.434;2023-02-15T03:45:47;46.00;;;15.13;;
20478;SDS011;10398;52.490;13.434;2023-02-15T03:48:27;44.17;;;13.67;;
20478;SDS011;10398;52.490;13.434;2023-02-15T03:51:00;46.40;;;14.67;;
20478;SDS011;10398;52.490;13.434;2023-02-15T03:53:47;44.43;;;14.53;;
20478;SDS011;10398;52.490;13.434;2023-02-15T03:56:15;46.53;;;15.47;;
20478;SDS011;10398;52.490;13.434;2023-02-15T03:58:40;49.10;;;14.53;;
20478;SDS011;10398;52.490;13.434;2023-02-15T04:04:36;44.07;;;13.97;;
20478;SDS011;10398;52.490;13.434;2023-02-15T04:07:05;40.40;;;12.73;;
20478;SDS011;10398;52.490;13.434;2023-02-15T04:09:32;45.27;;;13.53;;
20478;SDS011;10398;52.490;13.434;2023-02-15T04:12:16;38.20;;;12.73;;
20478;SDS011;10398;52.490;13.434;2023-02-15T04:14:42;47.17;;;14.03;;
20478;SDS011;10398;52.490;13.434;2023-02-15T04:17:26;44.10;;;12.93;;
20478;SDS011;10398;52.490;13.434;2023-02-15T04:19:52;40.53;;;14.20;;
20478;SDS011;10398;52.490;13.434;2023-02-15T04:22:36;41.20;;;13.97;;
20478;SDS011;10398;52.490;13.434;2023-02-15T04:25:20;41.73;;;13.37;;
20478;SDS011;10398;52.490;13.434;2023-02-15T04:27:52;40.33;;;12.60;;
20478;SDS011;10398;52.490;13.434;2023-02-15T04:30:20;41.63;;;13.23;;
20478;SDS011;10398;52.490;13.434;2023-02-15T04:32:47;41.83;;;13.83;;
20478;SDS011;10398;52.490;13.434;2023-02-15T04:35:13;38.57;;;13.30;;
20478;SDS011;10398;52.490;13.434;2023-02-15T04:37:40;45.53;;;13.33;;
20478;SDS011;10398;52.490;13.434;2023-02-15T04:40:08;42.50;;;14.47;;
20478;SDS011;10398;52.490;13.434;2023-02-15T04:42:35;42.67;;;14.40;;
20478;SDS011;10398;52.490;13.434;2023-02-15T04:45:01;35.20;;;11.00;;
20478;SDS011;10398;52.490;13.434;2023-02-15T04:47:27;40.87;;;12.63;;
20478;SDS011;10398;52.490;13.434;2023-02-15T04:49:52;37.10;;;12.03;;
20478;SDS011;10398;52.490;13.434;2023-02-15T04:52:18;35.40;;;12.33;;
20478;SDS011;10398;52.490;13.434;2023-02-15T04:54:44;37.70;;;12.13;;
20478;SDS011;10398;52.490;13.434;2023-02-15T04:57:10;34.03;;;12.37;;
20478;SDS011;10398;52.490;13.434;2023-02-15T04:59:36;36.27;;;12.87;;
20478;SDS011;10398;52.490;13.434;2023-02-15T05:02:01;37.17;;;12.90;;
20478;SDS011;10398;52.490;13.434;2023-02-15T05:04:27;48.90;;;14.97;;
20478;SDS011;10398;52.490;13.434;2023-02-15T05:06:53;41.67;;;13.40;;
20478;SDS011;10398;52.490;13.434;2023-02-15T05:09:19;37.37;;;13.20;;
20478;SDS011;10398;52.490;13.434;2023-02-15T05:11:44;38.73;;;13.37;;
20478;SDS011;10398;52.490;13.434;2023-02-15T05:14:10;43.17;;;14.20;;
20478;SDS011;10398;52.490;13.434;2023-02-15T05:16:36;39.77;;;11.80;;
20478;SDS011;10398;52.490;13.434;2023-02-15T05:19:02;39.37;;;14.07;;
20478;SDS011;10398;52.490;13.434;2023-02-15T05:21:28;42.70;;;13.30;;
20478;SDS011;10398;52.490;13.434;2023-02-15T05:23:53;39.83;;;14.30;;
20478;SDS011;10398;52.490;13.434;2023-02-15T05:26:20;39.17;;;12.90;;
20478;SDS011;10398;52.490;13.434;2023-02-15T05:29:06;46.57;;;14.77;;
20478;SDS011;10398;52.490;13.434;2023-02-15T05:31:32;42.13;;;13.27;;
20478;SDS011;10398;52.490;13.434;2023-02-15T05:33:59;39.17;;;12.77;;
20478;SDS011;10398;52.490;13.434;2023-02-15T05:36:25;40.97;;;13.37;;
20478;SDS011;10398;52.490;13.434;2023-02-15T05:38:51;40.90;;;13.80;;
20478;SDS011;10398;52.490;13.434;2023-02-15T05:41:16;42.23;;;12.97;;
20478;SDS011;10398;52.490;13.434;2023-02-15T05:43:42;52.03;;;16.97;;
20478;SDS011;10398;52.490;13.434;2023-02-15T05:46:08;48.90;;;15.47;;
20478;SDS011;10398;52.490;13.434;2023-02-15T05:48:34;61.20;;;15.03;;
20478;SDS011;10398;52.490;13.434;2023-02-15T05:51:04;45.90;;;12.87;;
20478;SDS011;10398;52.490;13.434;2023-02-15T05:53:31;42.03;;;13.57;;
20478;SDS011;10398;52.490;13.434;2023-02-15T05:55:58;52.57;;;14.67;;
20478;SDS011;10398;52.490;13.434;2023-02-15T05:58:34;48.47;;;13.83;;
20478;SDS011;10398;52.490;13.434;2023-02-15T06:01:12;43.40;;;13.47;;
20478;SDS011;10398;52.490;13.434;2023-02-15T06:03:39;47.33;;;13.87;;
20478;SDS011;10398;52.490;13.434;2023-02-15T06:06:05;45.40;;;14.73;;
20478;SDS011;10398;52.490;13.434;2023-02-15T06:08:32;42.73;;;13.87;;
20478;SDS011;10398;52.490;13.434;2023-02-15T06:10:58;42.93;;;12.67;;
20478;SDS011;10398;52.490;13.434;2023-02-15T06:13:24;40.93;;;12.90;;
20478;SDS011;10398;52.490;13.434;2023-02-15T06:15:50;42.87;;;13.33;;
20478;SDS011;10398;52.490;13.434;2023-02-15T06:18:15;44.60;;;12.70;;
20478;SDS011;10398;52.490;13.434;2023-02-15T06:20:41;42.20;;;13.20;;
20478;SDS011;10398;52.490;13.434;2023-02-15T06:23:07;41.20;;;12.07;;
20478;SDS011;10398;52.490;13.434;2023-02-15T06:25:32;43.23;;;13.63;;
20478;SDS011;10398;52.490;13.434;2023-02-15T06:27:58;42.00;;;13.43;;
20478;SDS011;10398;52.490;13.434;2023-02-15T06:30:24;46.67;;;13.30;;
20478;SDS011;10398;52.490;13.434;2023-02-15T06:32:49;45.73;;;13.27;;
20478;SDS011;10398;52.490;13.434;2023-02-15T06:35:15;40.47;;;14.07;;
20478;SDS011;10398;52.490;13.434;2023-02-15T06:37:41;43.17;;;12.40;;
20478;SDS011;10398;52.490;13.434;2023-02-15T06:40:07;45.87;;;13.47;;
20478;SDS011;10398;52.490;13.434;2023-02-15T06:42:33;43.67;;;12.53;;
20478;SDS011;10398;52.490;13.434;2023-02-15T06:44:58;49.87;;;12.70;;
20478;SDS011;10398;52.490;13.434;2023-02-15T06:47:25;39.23;;;12.53;;
20478;SDS011;10398;52.490;13.434;2023-02-15T06:49:51;38.20;;;13.47;;
20478;SDS011;10398;52.490;13.434;2023-02-15T06:52:16;51.60;;;13.73;;
20478;SDS011;10398;52.490;13.434;2023-02-15T06:54:42;40.47;;;11.90;;
20478;SDS011;10398;52.490;13.434;2023-02-15T06:57:07;39.20;;;12.47;;
20478;SDS011;10398;52.490;13.434;2023-02-15T06:59:34;45.70;;;13.47;;
20478;SDS011;10398;52.490;13.434;2023-02-15T07:02:00;53.77;;;12.43;;
20478;SDS011;10398;52.490;13.434;2023-02-15T07:04:25;44.57;;;13.70;;
20478;SDS011;10398;52.490;13.434;2023-02-15T07:06:53;41.33;;;12.97;;
20478;SDS011;10398;52.490;13.434;2023-02-15T07:09:19;51.83;;;12.73;;
20478;SDS011;10398;52.490;13.434;2023-02-15T07:11:44;45.47;;;13.03;;
20478;SDS011;10398;52.490;13.434;2023-02-15T07:14:29;44.33;;;12.23;;
20478;SDS011;10398;52.490;13.434;2023-02-15T07:16:54;46.23;;;14.10;;
20478;SDS011;10398;52.490;13.434;2023-02-15T07:19:20;38.23;;;11.80;;
20478;SDS011;10398;52.490;13.434;2023-02-15T07:21:46;41.93;;;13.33;;
20478;SDS011;10398;52.490;13.434;2023-02-15T07:24:12;35.57;;;11.80;;
20478;SDS011;10398;52.490;13.434;2023-02-15T07:26:37;44.43;;;12.60;;
20478;SDS011;10398;52.490;13.434;2023-02-15T07:29:03;44.73;;;13.03;;
20478;SDS011;10398;52.490;13.434;2023-02-15T07:31:29;39.57;;;12.70;;
20478;SDS011;10398;52.490;13.434;2023-02-15T07:33:55;36.90;;;12.37;;
20478;SDS011;10398;52.490;13.434;2023-02-15T07:36:20;42.90;;;13.03;;
20478;SDS011;10398;52.490;13.434;2023-02-15T07:38:46;37.53;;;11.57;;
20478;SDS011;10398;52.490;13.434;2023-02-15T07:41:13;37.63;;;10.80;;
20478;SDS011;10398;52.490;13.434;2023-02-15T07:43:40;45.83;;;12.40;;
20478;SDS011;10398;52.490;13.434;2023-02-15T07:46:09;45.07;;;11.70;;
20478;SDS011;10398;52.490;13.434;2023-02-15T07:48:36;38.40;;;11.87;;
20478;SDS011;10398;52.490;13.434;2023-02-15T07:51:04;37.53;;;11.63;;
20478;SDS011;10398;52.490;13.434;2023-02-15T07:53:31;46.63;;;14.30;;
20478;SDS011;10398;52.490;13.434;2023-02-15T07:56:01;45.17;;;12.77;;
20478;SDS011;10398;52.490;13.434;2023-02-15T07:58:27;44.07;;;13.20;;
20478;SDS011;10398;52.490;13.434;2023-02-15T08:01:12;38.70;;;10.70;;
20478;SDS011;10398;52.490;13.434;2023-02-15T08:03:38;40.33;;;12.57;;
20478;SDS011;10398;52.490;13.434;2023-02-15T08:06:04;45.83;;;12.67;;
20478;SDS011;10398;52.490;13.434;2023-02-15T08:08:30;47.13;;;13.07;;
20478;SDS011;10398;52.490;13.434;2023-02-15T08:11:03;57.27;;;14.20;;
20478;SDS011;10398;52.490;13.434;2023-02-15T08:13:48;38.77;;;12.17;;
20478;SDS011;10398;52.490;13.434;2023-02-15T08:21:39;43.90;;;12.67;;
20478;SDS011;10398;52.490;13.434;2023-02-15T08:24:06;41.27;;;13.37;;
20478;SDS011;10398;52.490;13.434;2023-02-15T08:26:34;41.90;;;13.03;;
20478;SDS011;10398;52.490;13.434;2023-02-15T08:29:00;41.77;;;12.67;;
20478;SDS011;10398;52.490;13.434;2023-02-15T08:31:27;44.37;;;12.13;;
20478;SDS011;10398;52.490;13.434;2023-02-15T08:33:53;44.03;;;12.50;;
20478;SDS011;10398;52.490;13.434;2023-02-15T08:36:22;40.37;;;12.07;;
20478;SDS011;10398;52.490;13.434;2023-02-15T08:38:49;39.77;;;10.90;;
20478;SDS011;10398;52.490;13.434;2023-02-15T08:41:16;51.07;;;13.23;;
20478;SDS011;10398;52.490;13.434;2023-02-15T08:43:47;33.63;;;10.80;;
20478;SDS011;10398;52.490;13.434;2023-02-15T08:46:14;34.97;;;10.20;;
20478;SDS011;10398;52.490;13.434;2023-02-15T08:48:41;41.70;;;12.00;;
20478;SDS011;10398;52.490;13.434;2023-02-15T08:51:11;46.33;;;13.50;;
20478;SDS011;10398;52.490;13.434;2023-02-15T08:53:42;45.77;;;13.63;;
20478;SDS011;10398;52.490;13.434;2023-02-15T08:56:10;45.20;;;12.10;;
20478;SDS011;10398;52.490;13.434;2023-02-15T08:58:37;35.10;;;11.90;;
20478;SDS011;10398;52.490;13.434;2023-02-15T09:01:12;48.00;;;13.43;;
20478;SDS011;10398;52.490;13.434;2023-02-15T09:03:43;42.60;;;12.63;;
20478;SDS011;10398;52.490;13.434;2023-02-15T09:06:10;31.73;;;11.23;;
20478;SDS011;10398;52.490;13.434;2023-02-15T09:08:36;39.97;;;12.40;;
20478;SDS011;10398;52.490;13.434;2023-02-15T09:11:12;41.13;;;12.70;;
20478;SDS011;10398;52.490;13.434;2023-02-15T09:13:47;32.67;;;11.43;;
20478;SDS011;10398;52.490;13.434;2023-02-15T09:16:21;35.80;;;11.77;;
20478;SDS011;10398;52.490;13.434;2023-02-15T09:18:48;34.70;;;11.83;;
20478;SDS011;10398;52.490;13.434;2023-02-15T09:21:15;30.73;;;11.20;;
20478;SDS011;10398;52.490;13.434;2023-02-15T09:23:43;36.73;;;11.30;;
20478;SDS011;10398;52.490;13.434;2023-02-15T09:26:14;36.23;;;11.30;;
20478;SDS011;10398;52.490;13.434;2023-02-15T09:28:42;35.60;;;11.90;;
20478;SDS011;10398;52.490;13.434;2023-02-15T09:31:14;37.20;;;10.00;;
20478;SDS011;10398;52.490;13.434;2023-02-15T09:33:42;28.00;;;10.60;;
20478;SDS011;10398;52.490;13.434;2023-02-15T09:36:16;37.60;;;11.33;;
20478;SDS011;10398;52.490;13.434;2023-02-15T09:38:57;35.20;;;9.67;;
20478;SDS011;10398;52.490;13.434;2023-02-15T09:52:13;37.30;;;11.93;;
20478;SDS011;10398;52.490;13.434;2023-02-15T09:55:23;41.87;;;13.47;;
20478;SDS011;10398;52.490;13.434;2023-02-15T10:00:53;28.00;;;9.90;;
20478;SDS011;10398;52.490;13.434;2023-02-15T10:03:42;28.63;;;10.10;;
20478;SDS011;10398;52.490;13.434;2023-02-15T10:26:07;34.97;;;11.00;;
20478;SDS011;10398;52.490;13.434;2023-02-15T10:28:55;34.27;;;11.13;;
20478;SDS011;10398;52.490;13.434;2023-02-15T10:31:43;31.63;;;12.20;;
20478;SDS011;10398;52.490;13.434;2023-02-15T10:34:15;32.03;;;12.33;;
20478;SDS011;10398;52.490;13.434;2023-02-15T10:36:52;37.80;;;12.83;;
20478;SDS011;10398;52.490;13.434;2023-02-15T10:45:31;30.83;;;11.43;;
20478;SDS011;10398;52.490;13.434;2023-02-15T10:50:47;30.50;;;12.33;;
20478;SDS011;10398;52.490;13.434;2023-02-15T10:58:49;38.83;;;13.60;;
20478;SDS011;10398;52.490;13.434;2023-02-15T11:03:56;34.80;;;13.80;;
20478;SDS011;10398;52.490;13.434;2023-02-15T11:06:32;39.83;;;14.27;;
20478;SDS011;10398;52.490;13.434;2023-02-15T11:09:02;32.73;;;13.10;;
20478;SDS011;10398;52.490;13.434;2023-02-15T11:11:37;36.90;;;13.30;;
20478;SDS011;10398;52.490;13.434;2023-02-15T11:14:09;33.90;;;13.47;;
20478;SDS011;10398;52.490;13.434;2023-02-15T11:16:46;31.17;;;13.80;;
20478;SDS011;10398;52.490;13.434;2023-02-15T11:19:23;32.20;;;13.13;;
20478;SDS011;10398;52.490;13.434;2023-02-15T11:21:57;32.67;;;12.93;;
20478;SDS011;10398;52.490;13.434;2023-02-15T11:24:26;34.97;;;14.23;;
20478;SDS011;10398;52.490;13.434;2023-02-15T11:27:05;31.77;;;13.30;;
20478;SDS011;10398;52.490;13.434;2023-02-15T11:32:17;30.10;;;12.80;;
20478;SDS011;10398;52.490;13.434;2023-02-15T11:40:30;30.97;;;13.73;;
20478;SDS011;10398;52.490;13.434;2023-02-15T11:43:20;33.97;;;13.87;;
20478;SDS011;10398;52.490;13.434;2023-02-15T11:45:54;36.10;;;13.63;;
20478;SDS011;10398;52.490;13.434;2023-02-15T11:48:19;28.97;;;12.37;;
20478;SDS011;10398;52.490;13.434;2023-02-15T11:50:45;30.50;;;12.37;;
20478;SDS011;10398;52.490;13.434;2023-02-15T11:55:49;29.73;;;11.93;;
20478;SDS011;10398;52.490;13.434;2023-02-15T12:01:10;34.33;;;12.83;;
20478;SDS011;10398;52.490;13.434;2023-02-15T12:08:52;28.87;;;12.37;;
20478;SDS011;10398;52.490;13.434;2023-02-15T12:11:28;27.43;;;11.97;;
20478;SDS011;10398;52.490;13.434;2023-02-15T12:14:07;25.80;;;11.97;;
20478;SDS011;10398;52.490;13.434;2023-02-15T12:16:40;28.97;;;12.27;;
20478;SDS011;10398;52.490;13.434;2023-02-15T12:19:09;30.40;;;12.87;;
20478;SDS011;10398;52.490;13.434;2023-02-15T12:21:50;27.50;;;12.13;;
20478;SDS011;10398;52.490;13.434;2023-02-15T12:27:05;32.73;;;13.50;;
20478;SDS011;10398;52.490;13.434;2023-02-15T12:29:41;28.97;;;12.20;;
20478;SDS011;10398;52.490;13.434;2023-02-15T12:32:24;35.20;;;13.13;;
20478;SDS011;10398;52.490;13.434;2023-02-15T12:34:53;30.40;;;12.50;;
20478;SDS011;10398;52.490;13.434;2023-02-15T12:37:40;27.90;;;12.50;;
20478;SDS011;10398;52.490;13.434;2023-02-15T12:40:26;32.67;;;13.03;;
20478;SDS011;10398;52.490;13.434;2023-02-15T12:42:55;28.13;;;12.63;;
20478;SDS011;10398;52.490;13.434;2023-02-15T12:48:14;29.17;;;12.63;;
20478;SDS011;10398;52.490;13.434;2023-02-15T12:50:42;28.57;;;12.33;;
20478;SDS011;10398;52.490;13.434;2023-02-15T12:53:16;33.43;;;14.27;;
20478;SDS011;10398;52.490;13.434;2023-02-15T12:55:52;32.77;;;12.47;;
20478;SDS011;10398;52.490;13.434;2023-02-15T12:58:23;29.70;;;12.93;;
20478;SDS011;10398;52.490;13.434;2023-02-15T13:01:33;30.43;;;13.10;;
20478;SDS011;10398;52.490;13.434;2023-02-15T13:06:24;26.20;;;11.93;;
20478;SDS011;10398;52.490;13.434;2023-02-15T13:08:52;32.00;;;11.73;;
20478;SDS011;10398;52.490;13.434;2023-02-15T13:11:21;30.70;;;12.27;;
20478;SDS011;10398;52.490;13.434;2023-02-15T13:13:59;25.60;;;11.37;;
20478;SDS011;10398;52.490;13.434;2023-02-15T13:16:41;27.57;;;11.37;;
20478;SDS011;10398;52.490;13.434;2023-02-15T13:19:11;23.33;;;11.10;;
20478;SDS011;10398;52.490;13.434;2023-02-15T13:21:41;26.13;;;10.90;;
20478;SDS011;10398;52.490;13.434;2023-02-15T13:24:15;25.10;;;11.87;;
20478;SDS011;10398;52.490;13.434;2023-02-15T13:26:46;25.83;;;11.33;;
20478;SDS011;10398;52.490;13.434;2023-02-15T13:29:17;23.20;;;11.20;;
20478;SDS011;10398;52.490;13.434;2023-02-15T13:31:48;29.10;;;11.47;;
20478;SDS011;10398;52.490;13.434;2023-02-15T13:34:17;28.67;;;12.20;;
20478;SDS011;10398;52.490;13.434;2023-02-15T13:37:15;28.80;;;10.90;;
20478;SDS011;10398;52.490;13.434;2023-02-15T13:42:28;27.33;;;12.00;;
20478;SDS011;10398;52.490;13.434;2023-02-15T13:56:28;26.57;;;11.83;;
20478;SDS011;10398;52.490;13.434;2023-02-15T14:01:52;29.73;;;11.37;;
20478;SDS011;10398;52.490;13.434;2023-02-15T14:08:08;25.50;;;10.37;;
20478;SDS011;10398;52.490;13.434;2023-02-15T14:10:50;26.13;;;11.40;;
20478;SDS011;10398;52.490;13.434;2023-02-15T14:18:35;26.53;;;11.30;;
20478;SDS011;10398;52.490;13.434;2023-02-15T14:21:21;24.43;;;11.53;;
20478;SDS011;10398;52.490;13.434;2023-02-15T14:27:23;25.23;;;11.93;;
20478;SDS011;10398;52.490;13.434;2023-02-15T14:30:30;23.97;;;11.10;;
20478;SDS011;10398;52.490;13.434;2023-02-15T14:33:01;29.43;;;12.07;;
20478;SDS011;10398;52.490;13.434;2023-02-15T14:35:40;31.43;;;12.00;;
20478;SDS011;10398;52.490;13.434;2023-02-15T14:49:39;23.60;;;10.57;;
20478;SDS011;10398;52.490;13.434;2023-02-15T14:52:06;27.30;;;11.00;;
20478;SDS011;10398;52.490;13.434;2023-02-15T14:59:50;30.90;;;11.33;;
20478;SDS011;10398;52.490;13.434;2023-02-15T15:02:45;28.40;;;11.07;;
20478;SDS011;10398;52.490;13.434;2023-02-15T15:05:17;25.23;;;10.00;;
20478;SDS011;10398;52.490;13.434;2023-02-15T15:15:53;28.80;;;10.87;;
20478;SDS011;10398;52.490;13.434;2023-02-15T15:18:42;26.27;;;10.97;;
20478;SDS011;10398;52.490;13.434;2023-02-15T15:21:56;25.30;;;9.80;;
20478;SDS011;10398;52.490;13.434;2023-02-15T15:32:38;22.50;;;9.63;;
20478;SDS011;10398;52.490;13.434;2023-02-15T15:47:33;27.80;;;9.60;;
20478;SDS011;10398;52.490;13.434;2023-02-15T15:50:14;23.00;;;10.30;;
20478;SDS011;10398;52.490;13.434;2023-02-15T15:52:44;24.20;;;9.80;;
20478;SDS011;10398;52.490;13.434;2023-02-15T15:55:15;29.03;;;9.93;;
20478;SDS011;10398;52.490;13.434;2023-02-15T15:57:47;20.60;;;9.77;;
20478;SDS011;10398;52.490;13.434;2023-02-15T16:00:38;24.47;;;10.10;;
20478;SDS011;10398;52.490;13.434;2023-02-15T16:03:14;25.00;;;9.30;;
20478;SDS011;10398;52.490;13.434;2023-02-15T16:05:41;20.43;;;8.83;;
20478;SDS011;10398;52.490;13.434;2023-02-15T16:08:06;30.67;;;10.53;;
20478;SDS011;10398;52.490;13.434;2023-02-15T16:10:32;21.07;;;9.33;;
20478;SDS011;10398;52.490;13.434;2023-02-15T16:13:00;21.33;;;9.10;;
20478;SDS011;10398;52.490;13.434;2023-02-15T16:18:17;25.97;;;10.00;;
20478;SDS011;10398;52.490;13.434;2023-02-15T16:28:51;26.27;;;10.60;;
20478;SDS011;10398;52.490;13.434;2023-02-15T16:31:21;29.60;;;11.60;;
20478;SDS011;10398;52.490;13.434;2023-02-15T16:33:47;27.10;;;10.40;;
20478;SDS011;10398;52.490;13.434;2023-02-15T16:41:15;33.17;;;11.83;;
20478;SDS011;10398;52.490;13.434;2023-02-15T16:43:52;27.60;;;11.73;;
20478;SDS011;10398;52.490;13.434;2023-02-15T16:48:49;34.97;;;12.83;;
20478;SDS011;10398;52.490;13.434;2023-02-15T16:51:22;26.50;;;11.70;;
20478;SDS011;10398;52.490;13.434;2023-02-15T16:53:50;36.97;;;12.83;;
20478;SDS011;10398;52.490;13.434;2023-02-15T16:56:21;38.50;;;12.17;;
20478;SDS011;10398;52.490;13.434;2023-02-15T16:58:53;34.30;;;12.40;;
20478;SDS011;10398;52.490;13.434;2023-02-15T17:01:21;30.17;;;12.53;;
20478;SDS011;10398;52.490;13.434;2023-02-15T17:03:50;34.60;;;11.87;;
20478;SDS011;10398;52.490;13.434;2023-02-15T17:06:24;36.13;;;12.70;;
20478;SDS011;10398;52.490;13.434;2023-02-15T17:08:51;34.30;;;12.57;;
20478;SDS011;10398;52.490;13.434;2023-02-15T17:11:20;30.47;;;13.20;;
20478;SDS011;10398;52.490;13.434;2023-02-15T17:16:40;29.03;;;12.00;;
20478;SDS011;10398;52.490;13.434;2023-02-15T17:22:02;34.07;;;12.97;;
20478;SDS011;10398;52.490;13.434;2023-02-15T17:24:42;34.33;;;12.50;;
20478;SDS011;10398;52.490;13.434;2023-02-15T17:27:15;28.97;;;12.90;;
20478;SDS011;10398;52.490;13.434;2023-02-15T17:29:49;33.40;;;12.90;;
20478;SDS011;10398;52.490;13.434;2023-02-15T17:32:21;40.40;;;14.63;;
20478;SDS011;10398;52.490;13.434;2023-02-15T17:42:43;36.00;;;13.93;;
20478;SDS011;10398;52.490;13.434;2023-02-15T17:45:08;35.87;;;14.77;;
20478;SDS011;10398;52.490;13.434;2023-02-15T17:47:34;36.33;;;14.27;;
20478;SDS011;10398;52.490;13.434;2023-02-15T17:50:01;34.77;;;14.30;;
20478;SDS011;10398;52.490;13.434;2023-02-15T17:52:29;34.97;;;13.33;;
20478;SDS011;10398;52.490;13.434;2023-02-15T17:54:55;35.30;;;13.67;;
20478;SDS011;10398;52.490;13.434;2023-02-15T17:57:39;39.10;;;13.87;;
20478;SDS011;10398;52.490;13.434;2023-02-15T18:00:05;43.40;;;15.17;;
20478;SDS011;10398;52.490;13.434;2023-02-15T18:02:51;36.80;;;13.97;;
20478;SDS011;10398;52.490;13.434;2023-02-15T18:05:35;38.10;;;15.27;;
20478;SDS011;10398;52.490;13.434;2023-02-15T18:08:22;35.37;;;14.30;;
20478;SDS011;10398;52.490;13.434;2023-02-15T18:11:09;39.07;;;15.33;;